Portada
METAR-TAF:

METAR-TAF

Aeropuertos :

Bessemer, Alabama, Estados Unidos

latitud: 33-18-45N, longitud: 086-55-35W, altitud: 213 m

Observación

El informe se hizo hace 52 minutos, a las 18:56 UTC
Viento 8 kt del noroeste
Temperatura 12°C
Humedad 76%
Presión 1015 hPa
Visibilidad: 16.1 km
Cielo nuboso a una altura de 1700 ft
Cielo cubierto a una altura de 2300 ft

METAR: KEKY 271856Z AUTO 32008KT 10SM BKN017 OVC023 12/08 A2997 RMK AO2 SLP998 T01220078

Hora: 13:48 (19:48 UTC)


TAF: falta

Observaciones y pronósticos meteorológicos de más de 4000 aeropuertos (mensajes METAR y TAF).

Los puntos amarillos y rojos representan las estaciones disponibles.

Ponga el ratón en el punto deseado para ver el nombre de la estación.

Haga clic para ver las observaciones y los pronósticos meteorológicos.

Para cambiar el mapa : haga clic en los botones verdes con una cruz de color negro para hacer un zoom, en el botón verde con un guión para alejar o en las flechas verdes para mapas adyacentes.


METAR-TAF: